Time;durP1;ratioP1;P1;durP2;ratioP2;P2;SDS_P1;SDS_P2;PMS_P1;PMS_P2;Temp;Humidity;BMP_temperature;BMP_pressure;BME280_temperature;BME280_humidity;BME280_pressure;Samples;Min_cycle;Max_cycle;Signal;HPM_P1;HPM_P2
2021/07/01 00:00:13;;;;;;;7.95;6.97;;;16.50;99.90;;;;;;4175728;28;20048;-71
2021/07/01 00:02:14;;;;;;;9.82;6.65;;;16.50;99.90;;;;;;4173765;28;20047;-71
2021/07/01 00:04:14;;;;;;;8.48;6.97;;;16.50;99.90;;;;;;4173052;28;20124;-71
2021/07/01 00:06:17;;;;;;;8.90;6.82;;;16.40;99.90;;;;;;4174718;28;20037;-71
2021/07/01 00:08:18;;;;;;;9.45;7.05;;;16.40;99.90;;;;;;4173820;28;20033;-71
2021/07/01 00:10:22;;;;;;;7.80;6.47;;;16.40;99.90;;;;;;4175856;28;20033;-71
2021/07/01 00:12:23;;;;;;;9.27;6.63;;;16.40;99.90;;;;;;4166510;28;20137;-71
2021/07/01 00:14:24;;;;;;;12.90;7.15;;;16.40;99.90;;;;;;4175450;28;20079;-71
2021/07/01 00:16:25;;;;;;;8.02;6.55;;;16.40;99.90;;;;;;4174627;28;20036;-71
2021/07/01 00:18:26;;;;;;;9.85;6.32;;;16.40;99.90;;;;;;4175298;28;20056;-71
2021/07/01 00:20:27;;;;;;;8.60;6.57;;;16.40;99.90;;;;;;4175819;28;20404;-71
2021/07/01 00:22:27;;;;;;;10.00;6.65;;;16.40;99.90;;;;;;4179360;28;20035;-71
2021/07/01 00:24:28;;;;;;;9.25;7.03;;;16.40;99.90;;;;;;4174763;28;20392;-71
2021/07/01 00:26:28;;;;;;;8.77;6.93;;;16.40;99.90;;;;;;4176205;28;20480;-71
2021/07/01 00:28:29;;;;;;;10.15;7.20;;;16.40;99.90;;;;;;4175114;28;20036;-71
2021/07/01 00:30:29;;;;;;;8.90;6.40;;;16.40;99.90;;;;;;4173279;28;20052;-70
2021/07/01 00:32:30;;;;;;;8.48;6.30;;;16.30;99.90;;;;;;4171281;28;20049;-71
2021/07/01 00:34:32;;;;;;;10.02;6.93;;;16.40;99.90;;;;;;4175868;28;20569;-71
2021/07/01 00:36:33;;;;;;;9.23;6.30;;;16.40;99.90;;;;;;4169841;28;20048;-71
2021/07/01 00:38:33;;;;;;;7.43;5.88;;;16.40;99.90;;;;;;4173701;28;20280;-71
2021/07/01 00:40:34;;;;;;;7.82;5.78;;;16.40;99.90;;;;;;4173456;28;20041;-71
2021/07/01 00:42:35;;;;;;;6.93;5.78;;;16.40;99.90;;;;;;4175216;28;20049;-71
2021/07/01 00:44:36;;;;;;;6.22;5.32;;;16.40;99.90;;;;;;4173672;28;20067;-71
2021/07/01 00:46:37;;;;;;;8.65;6.07;;;16.50;99.90;;;;;;4175673;28;20040;-71
2021/07/01 00:48:37;;;;;;;8.50;6.68;;;16.50;99.90;;;;;;4172932;28;20037;-71
2021/07/01 00:50:38;;;;;;;7.90;6.35;;;16.50;99.90;;;;;;4174927;28;20040;-71
2021/07/01 00:52:39;;;;;;;7.93;6.32;;;16.40;99.90;;;;;;4175012;28;20033;-71
2021/07/01 00:54:40;;;;;;;9.80;6.25;;;16.50;99.90;;;;;;4174144;28;20025;-71
2021/07/01 00:56:41;;;;;;;8.73;6.30;;;16.40;99.90;;;;;;4175110;28;20045;-71
2021/07/01 00:58:42;;;;;;;7.80;5.93;;;16.50;99.90;;;;;;4153768;28;20049;-71
2021/07/01 01:02:43;;;;;;;8.25;6.32;;;16.50;99.90;;;;;;4175311;28;20056;-71
2021/07/01 01:04:43;;;;;;;9.43;6.93;;;16.50;99.90;;;;;;4173702;28;20037;-71
2021/07/01 01:06:45;;;;;;;8.43;5.95;;;16.50;99.90;;;;;;4174448;28;20093;-71
2021/07/01 01:08:45;;;;;;;9.95;6.05;;;16.50;99.90;;;;;;4170531;28;20710;-71
2021/07/01 01:10:46;;;;;;;8.90;5.38;;;16.50;99.90;;;;;;4175431;28;20071;-71
2021/07/01 01:12:46;;;;;;;8.30;5.72;;;16.50;99.90;;;;;;4174078;28;20033;-71
2021/07/01 01:14:47;;;;;;;9.75;6.15;;;16.40;99.90;;;;;;4171958;28;20461;-71
2021/07/01 01:16:48;;;;;;;9.57;6.18;;;16.40;99.90;;;;;;4175440;28;20043;-71
2021/07/01 01:18:50;;;;;;;8.13;5.50;;;16.40;99.90;;;;;;4173267;28;20508;-71
2021/07/01 01:20:51;;;;;;;10.07;6.35;;;16.40;99.90;;;;;;4174584;28;20070;-71
2021/07/01 01:22:52;;;;;;;10.23;5.90;;;16.40;99.90;;;;;;4166800;28;20049;-71
2021/07/01 01:24:53;;;;;;;7.15;4.90;;;16.40;99.90;;;;;;4174234;28;20617;-71
2021/07/01 01:26:53;;;;;;;10.25;5.50;;;16.40;99.90;;;;;;4174238;28;20098;-71
2021/07/01 01:28:54;;;;;;;9.13;5.82;;;16.40;99.90;;;;;;4175016;28;20102;-71
2021/07/01 01:30:55;;;;;;;10.93;6.45;;;16.40;99.90;;;;;;4174372;28;20080;-71
2021/07/01 01:32:56;;;;;;;9.55;6.57;;;16.40;99.90;;;;;;4168294;28;20111;-71
2021/07/01 01:34:56;;;;;;;8.75;5.75;;;16.30;99.90;;;;;;4172101;28;20033;-71
2021/07/01 01:36:57;;;;;;;8.82;5.47;;;16.30;99.90;;;;;;4171444;28;22080;-71
2021/07/01 01:38:57;;;;;;;9.15;5.80;;;16.30;99.90;;;;;;4171060;28;20040;-71
2021/07/01 01:40:58;;;;;;;12.73;6.78;;;16.30;99.90;;;;;;4165513;28;20033;-71
2021/07/01 01:42:59;;;;;;;8.30;6.10;;;16.30;99.90;;;;;;4173493;28;20123;-71
2021/07/01 01:44:59;;;;;;;10.23;6.18;;;16.30;99.90;;;;;;4170797;28;20528;-71
2021/07/01 01:47:00;;;;;;;8.70;5.80;;;16.30;99.90;;;;;;4174806;28;20029;-71
2021/07/01 01:49:00;;;;;;;9.55;6.22;;;16.30;99.90;;;;;;4172359;28;20744;-71
2021/07/01 01:51:01;;;;;;;9.05;5.88;;;16.30;99.90;;;;;;4172496;28;20079;-71
2021/07/01 01:53:02;;;;;;;10.48;5.60;;;16.30;99.90;;;;;;4173819;28;20037;-71
2021/07/01 01:55:03;;;;;;;11.88;6.85;;;16.30;99.90;;;;;;4173335;28;20044;-71
2021/07/01 01:57:04;;;;;;;14.65;7.30;;;16.30;99.90;;;;;;4165252;28;20480;-71
2021/07/01 01:59:06;;;;;;;8.07;6.15;;;16.20;99.90;;;;;;4167972;28;20103;-71
2021/07/01 02:01:06;;;;;;;13.43;6.57;;;16.30;99.90;;;;;;4174252;28;20043;-71
2021/07/01 02:03:07;;;;;;;9.88;6.07;;;16.20;99.90;;;;;;4174469;28;20041;-71
2021/07/01 02:05:09;;;;;;;10.15;6.03;;;16.30;99.90;;;;;;4174733;28;20053;-71
2021/07/01 02:07:10;;;;;;;10.80;7.25;;;16.30;99.90;;;;;;4170368;28;20040;-71
2021/07/01 02:09:10;;;;;;;11.75;6.55;;;16.30;99.90;;;;;;4170434;28;20037;-71
2021/07/01 02:11:11;;;;;;;9.88;5.80;;;16.20;99.90;;;;;;4159880;28;20041;-71
2021/07/01 02:13:11;;;;;;;9.80;7.38;;;16.30;99.90;;;;;;4168255;28;20035;-71
2021/07/01 02:15:15;;;;;;;9.93;6.38;;;16.20;99.90;;;;;;4174413;28;20118;-71
2021/07/01 02:17:16;;;;;;;10.60;6.60;;;16.30;99.90;;;;;;4171428;28;20036;-71
2021/07/01 02:19:16;;;;;;;9.30;6.35;;;16.20;99.90;;;;;;4172160;28;20146;-72
2021/07/01 02:21:18;;;;;;;9.18;6.35;;;16.20;99.90;;;;;;4173881;28;20495;-72
2021/07/01 02:23:19;;;;;;;8.13;7.03;;;16.30;99.90;;;;;;4176425;28;20041;-72
2021/07/01 02:25:20;;;;;;;10.50;6.20;;;16.20;99.90;;;;;;4176704;28;20392;-72
2021/07/01 02:27:20;;;;;;;10.27;6.57;;;16.20;99.90;;;;;;4177852;28;20036;-72
2021/07/01 02:29:21;;;;;;;12.85;7.47;;;16.10;99.90;;;;;;4177511;28;20090;-72
2021/07/01 02:31:22;;;;;;;7.80;6.25;;;16.10;99.90;;;;;;4177007;28;20067;-72
2021/07/01 02:33:22;;;;;;;10.35;6.82;;;16.10;99.90;;;;;;4177337;28;20060;-72
2021/07/01 02:35:23;;;;;;;9.68;6.63;;;16.10;99.90;;;;;;4171535;28;20416;-72
2021/07/01 02:37:24;;;;;;;9.43;6.65;;;16.00;99.90;;;;;;4177026;28;20078;-72
2021/07/01 02:39:25;;;;;;;10.18;5.88;;;16.00;99.90;;;;;;4177271;28;20037;-72
2021/07/01 02:41:25;;;;;;;8.70;5.97;;;16.00;99.90;;;;;;4174279;28;20637;-72
2021/07/01 02:43:27;;;;;;;10.85;6.68;;;16.00;99.90;;;;;;4177485;28;20035;-72
2021/07/01 02:45:28;;;;;;;10.82;6.65;;;16.00;99.90;;;;;;4176192;28;20396;-72
2021/07/01 02:47:28;;;;;;;10.98;7.50;;;15.90;99.90;;;;;;4168110;28;20033;-72
2021/07/01 02:49:29;;;;;;;9.63;7.10;;;15.90;99.90;;;;;;4174779;28;20039;-72
2021/07/01 02:51:30;;;;;;;16.70;7.85;;;15.80;99.90;;;;;;4159189;28;20050;-72
2021/07/01 02:53:30;;;;;;;12.90;6.18;;;15.70;99.90;;;;;;4175387;28;20076;-72
2021/07/01 02:55:31;;;;;;;12.98;5.78;;;15.60;99.90;;;;;;4176140;28;20049;-72
2021/07/01 02:57:31;;;;;;;13.30;5.82;;;15.50;99.90;;;;;;4177210;28;20041;-72
2021/07/01 02:59:32;;;;;;;9.30;4.80;;;15.50;99.90;;;;;;4176428;28;20046;-72
2021/07/01 03:01:33;;;;;;;10.32;4.80;;;15.40;99.90;;;;;;4176901;28;20045;-72
2021/07/01 03:03:34;;;;;;;9.32;5.20;;;15.40;99.90;;;;;;4177246;28;20049;-72
2021/07/01 03:05:34;;;;;;;14.40;5.18;;;15.40;99.90;;;;;;4174263;28;20049;-71
2021/07/01 03:07:35;;;;;;;6.65;4.43;;;15.30;99.90;;;;;;4174340;28;20041;-71
2021/07/01 03:09:36;;;;;;;8.57;4.18;;;15.40;99.90;;;;;;4177247;28;20039;-72
2021/07/01 03:11:38;;;;;;;9.80;4.70;;;15.40;99.90;;;;;;4176463;28;20102;-72
2021/07/01 03:13:38;;;;;;;11.75;5.38;;;15.40;99.90;;;;;;4176263;28;20041;-72
2021/07/01 03:15:39;;;;;;;9.30;5.03;;;15.40;99.90;;;;;;4176676;28;20091;-72
2021/07/01 03:17:40;;;;;;;13.60;5.28;;;15.40;99.90;;;;;;4175675;28;20090;-72
2021/07/01 03:19:40;;;;;;;12.48;5.53;;;15.40;99.90;;;;;;4174501;28;20037;-72
2021/07/01 03:21:41;;;;;;;10.77;5.82;;;15.40;99.90;;;;;;4174019;28;20436;-72
2021/07/01 03:23:42;;;;;;;13.57;6.07;;;15.40;99.90;;;;;;4176421;28;20040;-72
2021/07/01 03:25:42;;;;;;;14.48;5.97;;;15.40;99.90;;;;;;4175178;28;20037;-72
2021/07/01 03:27:43;;;;;;;15.50;6.15;;;15.40;99.90;;;;;;4171931;28;20065;-72
2021/07/01 03:29:43;;;;;;;12.65;5.18;;;15.40;99.90;;;;;;4175035;28;20480;-71
2021/07/01 03:31:44;;;;;;;17.20;6.05;;;15.40;99.90;;;;;;4172832;28;20041;-72
2021/07/01 03:33:44;;;;;;;12.40;6.22;;;15.40;99.90;;;;;;4175194;28;20114;-71
2021/07/01 03:35:45;;;;;;;10.60;5.10;;;15.50;99.90;;;;;;4174694;28;20124;-71
2021/07/01 03:37:46;;;;;;;13.05;6.05;;;15.50;99.90;;;;;;4171596;28;20040;-72
2021/07/01 03:39:46;;;;;;;9.35;5.05;;;15.50;99.90;;;;;;4169465;28;20489;-71
2021/07/01 03:41:47;;;;;;;9.00;5.40;;;15.50;99.90;;;;;;4174229;28;20434;-71
2021/07/01 03:43:50;;;;;;;9.73;5.53;;;15.50;99.90;;;;;;4172646;28;20045;-72
2021/07/01 03:45:51;;;;;;;9.68;5.10;;;15.60;99.90;;;;;;4175419;28;20037;-72
2021/07/01 03:47:52;;;;;;;8.43;4.63;;;15.60;99.90;;;;;;4174972;28;20037;-72
2021/07/01 03:49:53;;;;;;;10.68;4.80;;;15.60;99.90;;;;;;4176405;28;20037;-72
2021/07/01 03:51:53;;;;;;;9.27;5.10;;;15.70;99.90;;;;;;4174072;28;20041;-72
2021/07/01 03:53:54;;;;;;;9.70;5.18;;;15.70;99.90;;;;;;4175366;28;20037;-71
2021/07/01 03:55:54;;;;;;;9.55;5.63;;;15.70;99.90;;;;;;4178915;28;20052;-71
2021/07/01 03:57:55;;;;;;;12.48;5.75;;;15.70;99.90;;;;;;4182108;28;20650;-72
2021/07/01 03:59:55;;;;;;;11.50;6.15;;;15.70;99.90;;;;;;4181208;28;20041;-71
2021/07/01 04:01:56;;;;;;;9.77;6.03;;;15.70;99.90;;;;;;4183115;28;20766;-72
2021/07/01 04:03:57;;;;;;;9.65;5.95;;;15.70;99.90;;;;;;4177207;28;20068;-71
2021/07/01 04:05:57;;;;;;;14.20;6.80;;;15.80;99.90;;;;;;4163138;28;20025;-71
2021/07/01 04:07:58;;;;;;;14.82;7.95;;;15.80;99.90;;;;;;4175648;28;20171;-72
2021/07/01 04:10:06;;;;;;;16.05;8.13;;;15.70;99.90;;;;;;4175552;28;20037;-71
2021/07/01 04:12:07;;;;;;;16.38;7.55;;;15.70;99.90;;;;;;4176849;28;20115;-72
2021/07/01 04:14:08;;;;;;;11.82;6.95;;;15.70;99.90;;;;;;4165092;28;20561;-71
2021/07/01 04:16:08;;;;;;;14.13;8.43;;;15.70;99.90;;;;;;4173627;28;20032;-71
2021/07/01 04:18:14;;;;;;;18.10;8.55;;;15.80;99.90;;;;;;4175880;28;20044;-71
2021/07/01 04:20:14;;;;;;;16.38;8.05;;;15.70;99.90;;;;;;4170498;28;20059;-71
2021/07/01 04:22:15;;;;;;;18.77;8.40;;;15.70;99.90;;;;;;4175095;28;20037;-71
2021/07/01 04:24:16;;;;;;;14.13;7.18;;;15.70;99.90;;;;;;4174473;28;20029;-72
2021/07/01 04:26:16;;;;;;;14.50;7.97;;;15.70;99.90;;;;;;4174765;28;20440;-72
2021/07/01 04:28:17;;;;;;;20.20;9.00;;;15.70;99.90;;;;;;4158044;28;20071;-72
2021/07/01 04:30:18;;;;;;;15.80;7.97;;;15.70;99.90;;;;;;4175716;28;20041;-72
2021/07/01 04:32:19;;;;;;;14.38;7.53;;;15.70;99.90;;;;;;4175684;28;20029;-71
2021/07/01 04:34:19;;;;;;;15.15;7.53;;;15.70;99.90;;;;;;4175428;28;20130;-73
2021/07/01 04:36:20;;;;;;;11.95;6.70;;;15.70;99.90;;;;;;4165338;28;20108;-73
2021/07/01 04:38:21;;;;;;;14.82;8.18;;;15.70;99.90;;;;;;4174358;28;20029;-73
2021/07/01 04:40:21;;;;;;;22.23;6.97;;;15.60;99.90;;;;;;4156414;28;20528;-74
2021/07/01 04:42:22;;;;;;;14.93;6.65;;;15.60;99.90;;;;;;4168622;28;20535;-73
2021/07/01 04:44:22;;;;;;;17.00;7.63;;;15.70;99.90;;;;;;4162742;28;20044;-73
2021/07/01 04:46:23;;;;;;;11.30;7.03;;;15.60;99.90;;;;;;4166925;28;20055;-74
2021/07/01 04:48:23;;;;;;;16.05;7.95;;;15.70;99.90;;;;;;4165960;28;20070;-73
2021/07/01 04:50:25;;;;;;;19.40;8.00;;;15.70;99.90;;;;;;4166095;28;20078;-74
2021/07/01 04:52:27;;;;;;;14.57;7.55;;;15.70;99.90;;;;;;4165746;28;20083;-73
2021/07/01 04:54:28;;;;;;;;;;;15.70;99.90;;;;;;4167355;28;20044;-74
2021/07/01 04:56:43;;;;;;;19.88;7.75;;;15.70;99.90;;;;;;4167271;28;19948;-74
2021/07/01 04:58:43;;;;;;;13.30;7.78;;;15.70;99.90;;;;;;4165876;28;20511;-73
2021/07/01 05:00:45;;;;;;;18.10;7.90;;;15.70;99.90;;;;;;4160218;28;20069;-73
2021/07/01 05:02:46;;;;;;;16.53;8.13;;;15.70;99.90;;;;;;4162972;28;20404;-74
2021/07/01 05:04:47;;;;;;;13.75;8.40;;;15.60;99.90;;;;;;4160586;28;20700;-73
2021/07/01 05:06:47;;;;;;;12.80;6.97;;;15.60;99.90;;;;;;4167052;28;20037;-73
2021/07/01 05:08:48;;;;;;;15.75;7.35;;;15.60;99.90;;;;;;4168669;28;20072;-73
2021/07/01 05:10:48;;;;;;;14.05;6.82;;;15.60;99.90;;;;;;4168236;28;20041;-74
2021/07/01 05:12:50;;;;;;;14.20;7.05;;;15.60;99.90;;;;;;4163616;28;20069;-74
2021/07/01 05:14:51;;;;;;;16.77;7.10;;;15.60;99.90;;;;;;4163653;28;20099;-73
2021/07/01 05:16:51;;;;;;;15.82;7.15;;;15.60;99.90;;;;;;4169160;28;20028;-73
2021/07/01 05:18:52;;;;;;;16.50;8.23;;;15.60;99.90;;;;;;4167672;28;20020;-74
2021/07/01 05:20:52;;;;;;;17.63;6.75;;;15.60;99.90;;;;;;4161213;28;20136;-74
2021/07/01 05:22:53;;;;;;;13.40;7.35;;;15.50;99.90;;;;;;4157316;28;20452;-74
2021/07/01 05:24:54;;;;;;;11.00;6.45;;;15.50;99.90;;;;;;4167874;28;20052;-73
2021/07/01 05:26:54;;;;;;;12.57;6.05;;;15.50;99.90;;;;;;4161069;28;20033;-74
2021/07/01 05:28:55;;;;;;;18.38;8.00;;;15.50;99.90;;;;;;4166760;28;20699;-73
2021/07/01 05:30:55;;;;;;;16.35;7.80;;;15.50;99.90;;;;;;4165265;28;20125;-74
2021/07/01 05:32:56;;;;;;;19.60;7.88;;;15.40;99.90;;;;;;4162870;28;20037;-74
2021/07/01 05:34:57;;;;;;;21.05;7.32;;;15.40;99.90;;;;;;4161843;28;20068;-74
2021/07/01 05:36:58;;;;;;;16.98;6.88;;;15.40;99.90;;;;;;4166324;28;20120;-74
2021/07/01 05:38:58;;;;;;;19.30;7.05;;;15.40;99.90;;;;;;4166135;28;20152;-73
2021/07/01 05:40:59;;;;;;;11.15;5.90;;;15.40;99.90;;;;;;4140359;28;20128;-74
2021/07/01 05:43:00;;;;;;;11.18;6.07;;;15.50;99.90;;;;;;4161869;28;20113;-74
2021/07/01 05:45:02;;;;;;;20.10;7.32;;;15.50;99.90;;;;;;4164067;28;20127;-74
2021/07/01 05:47:04;;;;;;;13.45;6.57;;;15.60;99.90;;;;;;4159330;28;20048;-74
2021/07/01 05:49:04;;;;;;;15.32;7.63;;;15.50;99.90;;;;;;4164414;28;20037;-74
2021/07/01 05:51:07;;;;;;;18.92;6.80;;;15.60;99.90;;;;;;4165739;28;20049;-74
2021/07/01 05:53:11;;;;;;;18.52;7.25;;;15.60;99.90;;;;;;4170080;28;20037;-74
2021/07/01 05:55:12;;;;;;;11.27;6.72;;;15.60;99.90;;;;;;4166055;28;20041;-74
2021/07/01 05:57:12;;;;;;;15.15;7.50;;;15.60;99.90;;;;;;4167111;28;20117;-74
2021/07/01 05:59:13;;;;;;;17.50;7.80;;;15.60;99.90;;;;;;4169698;28;20171;-74
2021/07/01 06:01:13;;;;;;;15.73;6.95;;;15.70;99.90;;;;;;4167850;28;20048;-74
2021/07/01 06:03:14;;;;;;;14.45;8.18;;;15.70;99.90;;;;;;4170520;28;20041;-74
2021/07/01 06:05:15;;;;;;;13.77;6.28;;;15.60;99.90;;;;;;4169262;28;20045;-74
2021/07/01 06:07:26;;;;;;;14.70;7.00;;;15.70;99.90;;;;;;4162227;28;20079;-74
2021/07/01 06:09:27;;;;;;;12.65;6.80;;;15.70;99.90;;;;;;4165422;28;20416;-74
2021/07/01 06:11:28;;;;;;;16.33;8.18;;;15.70;99.90;;;;;;4167174;28;20122;-74
2021/07/01 06:13:30;;;;;;;12.68;6.72;;;15.70;99.90;;;;;;4163590;28;20069;-74
2021/07/01 06:15:33;;;;;;;11.60;6.57;;;15.70;99.90;;;;;;4165044;28;20489;-74
2021/07/01 06:17:34;;;;;;;21.42;8.90;;;15.80;99.90;;;;;;4165768;28;20051;-74
2021/07/01 06:19:34;;;;;;;18.92;8.73;;;15.80;99.90;;;;;;4170735;28;20041;-74
2021/07/01 06:21:35;;;;;;;14.48;8.52;;;15.80;99.90;;;;;;4169804;28;20654;-74
2021/07/01 06:23:40;;;;;;;12.63;8.00;;;15.70;99.90;;;;;;4171416;28;20579;-74
2021/07/01 06:25:41;;;;;;;14.68;7.68;;;15.70;99.90;;;;;;4168414;28;20037;-74
2021/07/01 06:27:42;;;;;;;14.60;8.48;;;15.80;99.90;;;;;;4168702;28;20080;-74
2021/07/01 06:29:45;;;;;;;14.82;7.80;;;15.80;99.90;;;;;;4172761;28;20037;-74
2021/07/01 06:31:45;;;;;;;16.33;8.48;;;15.80;99.90;;;;;;4167918;28;20504;-74
2021/07/01 06:33:47;;;;;;;17.98;8.35;;;15.70;99.90;;;;;;4170639;28;20045;-74
2021/07/01 06:35:51;;;;;;;16.40;7.70;;;15.70;99.90;;;;;;4174404;28;20045;-74
2021/07/01 06:37:55;;;;;;;17.75;7.97;;;15.70;99.90;;;;;;4152582;28;20147;-74
2021/07/01 06:39:57;;;;;;;17.70;7.93;;;15.70;99.90;;;;;;4165454;28;20028;-75
2021/07/01 06:42:02;;;;;;;15.15;8.02;;;15.70;99.90;;;;;;4172187;28;20039;-74
2021/07/01 06:44:07;;;;;;;19.00;9.63;;;15.70;99.90;;;;;;4172010;28;20044;-74
2021/07/01 06:46:09;;;;;;;14.10;7.03;;;15.70;99.90;;;;;;4169395;28;20069;-74
2021/07/01 06:48:11;;;;;;;21.05;8.40;;;15.70;99.90;;;;;;4172396;28;20087;-74
2021/07/01 06:50:13;;;;;;;13.75;8.02;;;15.80;99.90;;;;;;4170190;28;20763;-74
2021/07/01 06:52:14;;;;;;;15.55;8.30;;;15.70;99.90;;;;;;4170858;28;20090;-74
2021/07/01 06:54:17;;;;;;;17.08;8.40;;;15.80;99.90;;;;;;4173975;28;20100;-74
2021/07/01 06:56:21;;;;;;;17.27;8.15;;;15.80;99.90;;;;;;4166712;28;20541;-74
2021/07/01 06:58:22;;;;;;;15.48;8.60;;;15.80;99.90;;;;;;4172941;28;20025;-74
2021/07/01 07:00:23;;;;;;;16.33;8.45;;;15.80;99.90;;;;;;4170181;28;20028;-74
2021/07/01 07:02:25;;;;;;;12.73;8.03;;;15.90;99.90;;;;;;4166246;28;20048;-74
2021/07/01 07:04:26;;;;;;;21.23;9.90;;;15.90;99.90;;;;;;4171090;28;20277;-74
2021/07/01 07:06:27;;;;;;;19.33;8.07;;;15.90;99.90;;;;;;4167148;28;20541;-74
2021/07/01 07:08:29;;;;;;;15.18;7.20;;;15.90;99.90;;;;;;4167811;28;20056;-74
2021/07/01 07:10:30;;;;;;;17.08;7.97;;;15.90;99.90;;;;;;4172399;28;20036;-74
2021/07/01 07:12:32;;;;;;;14.65;7.45;;;15.80;99.90;;;;;;4168693;28;20255;-74
2021/07/01 07:14:33;;;;;;;;;;;15.80;99.90;;;;;;4169622;28;20041;-75
2021/07/01 07:16:41;;;;;;;17.58;7.50;;;15.90;99.90;;;;;;4171988;28;20369;-74
2021/07/01 07:18:42;;;;;;;15.40;7.90;;;15.90;99.90;;;;;;4163738;28;20029;-75
2021/07/01 07:20:46;;;;;;;16.40;7.38;;;15.90;99.90;;;;;;4166327;28;20595;-74
2021/07/01 07:22:48;;;;;;;17.10;7.40;;;15.80;99.90;;;;;;4166636;28;20112;-74
2021/07/01 07:24:53;;;;;;;18.38;6.68;;;15.80;99.90;;;;;;4166661;28;20037;-75
2021/07/01 07:26:55;;;;;;;17.42;7.38;;;15.90;99.90;;;;;;4169704;28;20048;-75
2021/07/01 07:28:57;;;;;;;16.20;7.10;;;15.90;99.90;;;;;;4167206;28;20055;-75
2021/07/01 07:30:58;;;;;;;11.50;6.93;;;15.90;99.90;;;;;;4167545;28;20700;-75
2021/07/01 07:33:05;;;;;;;12.23;7.15;;;15.90;99.90;;;;;;4164300;28;20028;-75
2021/07/01 07:35:06;;;;;;;16.20;8.82;;;15.90;99.90;;;;;;4163846;28;20252;-75
2021/07/01 07:37:07;;;;;;;12.23;7.28;;;15.90;99.90;;;;;;4150382;28;20782;-75
2021/07/01 07:39:07;;;;;;;12.30;7.70;;;15.90;99.90;;;;;;4151472;28;20033;-75
2021/07/01 07:41:08;;;;;;;15.15;7.78;;;15.90;99.90;;;;;;4154407;28;20037;-74
2021/07/01 07:43:15;;;;;;;18.75;8.10;;;15.90;99.90;;;;;;4152243;28;20043;-74
2021/07/01 07:45:16;;;;;;;12.80;8.05;;;15.90;99.90;;;;;;4152902;28;20037;-74
2021/07/01 07:47:16;;;;;;;17.77;8.88;;;15.90;99.90;;;;;;4148523;28;20606;-74
2021/07/01 07:49:17;;;;;;;13.25;7.63;;;15.90;99.90;;;;;;4151811;28;20041;-74
2021/07/01 07:51:23;;;;;;;18.88;9.85;;;15.90;99.90;;;;;;4151991;28;20074;-74
2021/07/01 07:53:29;;;;;;;18.75;9.20;;;15.90;99.90;;;;;;4148682;28;20109;-74
2021/07/01 07:55:30;;;;;;;22.40;9.38;;;15.90;99.90;;;;;;4152380;28;20069;-75
2021/07/01 07:57:33;;;;;;;18.83;9.13;;;15.80;99.90;;;;;;4152923;28;20152;-74
2021/07/01 07:59:37;;;;;;;29.00;9.45;;;15.80;99.90;;;;;;4153673;28;20128;-75
2021/07/01 08:01:39;;;;;;;14.57;7.82;;;15.80;99.90;;;;;;4152506;28;20037;-74
2021/07/01 08:03:41;;;;;;;17.00;9.43;;;15.80;99.90;;;;;;4152805;28;20030;-74
2021/07/01 08:05:43;;;;;;;16.80;9.10;;;15.80;99.90;;;;;;4152136;28;20045;-74
2021/07/01 08:07:45;;;;;;;13.47;8.03;;;15.80;99.90;;;;;;4154433;28;20244;-74
2021/07/01 08:09:46;;;;;;;13.52;7.90;;;15.80;99.90;;;;;;4153950;28;20068;-74
2021/07/01 08:11:48;;;;;;;18.10;9.18;;;15.90;99.90;;;;;;4154081;28;20044;-74
2021/07/01 08:13:54;;;;;;;15.00;8.70;;;15.90;99.90;;;;;;4153123;28;20033;-74
2021/07/01 08:15:55;;;;;;;13.50;8.15;;;15.80;99.90;;;;;;4151366;28;20029;-74
2021/07/01 08:17:57;;;;;;;9.18;7.30;;;15.90;99.90;;;;;;4150991;28;20168;-75
2021/07/01 08:19:58;;;;;;;14.27;7.65;;;15.90;99.90;;;;;;4152286;28;20482;-74
2021/07/01 08:21:59;;;;;;;17.10;7.10;;;15.90;99.90;;;;;;4151186;28;20738;-74
2021/07/01 08:23:59;;;;;;;12.90;7.57;;;15.80;99.90;;;;;;4151445;28;20041;-74
2021/07/01 08:26:01;;;;;;;14.35;7.05;;;15.80;99.90;;;;;;4152938;28;20029;-74
2021/07/01 08:28:02;;;;;;;14.20;7.67;;;15.70;99.90;;;;;;4150585;28;20045;-74
2021/07/01 08:30:05;;;;;;;11.68;5.97;;;15.80;99.90;;;;;;4151481;28;20272;-75
2021/07/01 08:32:07;;;;;;;13.82;7.15;;;15.80;99.90;;;;;;4151926;28;20050;-74
2021/07/01 08:34:08;;;;;;;11.97;6.70;;;15.80;99.90;;;;;;4153415;28;22153;-74
2021/07/01 08:36:23;;;;;;;11.95;6.47;;;15.90;99.90;;;;;;4151105;28;20140;-74
2021/07/01 08:38:24;;;;;;;12.43;6.22;;;15.90;99.90;;;;;;4152903;28;20049;-75
2021/07/01 08:40:32;;;;;;;14.73;6.93;;;15.90;99.90;;;;;;4151870;28;20389;-74
2021/07/01 08:42:36;;;;;;;12.90;6.82;;;15.90;99.90;;;;;;4153698;28;20061;-74
2021/07/01 08:44:42;;;;;;;14.38;6.93;;;16.00;99.90;;;;;;4153292;28;20348;-74
2021/07/01 08:46:51;;;;;;;12.68;6.43;;;16.00;99.90;;;;;;4153025;28;20069;-74
2021/07/01 08:49:07;;;;;;;10.38;6.05;;;16.00;99.90;;;;;;4152251;28;20531;-74
2021/07/01 08:51:10;;;;;;;9.15;5.85;;;15.90;99.90;;;;;;4152404;28;20053;-74
2021/07/01 08:53:31;;;;;;;13.57;6.93;;;16.00;99.90;;;;;;4153140;28;20042;-75
2021/07/01 08:55:32;;;;;;;11.00;6.00;;;16.00;99.90;;;;;;4152963;28;20076;-74
2021/07/01 08:57:37;;;;;;;12.95;6.28;;;16.00;99.90;;;;;;4134932;28;20045;-74
2021/07/01 08:59:43;;;;;;;12.52;6.28;;;16.00;99.90;;;;;;4153268;28;20112;-74
2021/07/01 09:02:07;;;;;;;10.32;5.70;;;16.00;99.90;;;;;;4152979;28;20108;-74
2021/07/01 09:04:12;;;;;;;13.60;7.20;;;16.00;99.90;;;;;;4151300;28;20406;-74
2021/07/01 09:06:23;;;;;;;11.70;6.93;;;16.00;99.90;;;;;;4153896;28;20037;-74
2021/07/01 09:08:30;;;;;;;10.55;6.05;;;16.00;99.90;;;;;;4150418;28;20040;-73
2021/07/01 09:10:33;;;;;;;12.55;6.88;;;15.90;99.90;;;;;;4162907;23;20041;-74
2021/07/01 09:12:34;;;;;;;11.85;6.53;;;16.00;99.90;;;;;;4136964;28;20038;-74
2021/07/01 09:14:36;;;;;;;9.10;5.72;;;16.00;99.90;;;;;;4119731;28;20506;-75
2021/07/01 09:16:38;;;;;;;10.93;6.72;;;16.10;99.90;;;;;;4111851;28;20097;-75
2021/07/01 09:18:44;;;;;;;11.57;6.50;;;16.10;99.90;;;;;;4104065;28;20047;-74
2021/07/01 09:20:45;;;;;;;13.98;6.35;;;16.10;99.90;;;;;;4132491;28;20423;-75
2021/07/01 09:22:47;;;;;;;15.82;6.63;;;16.00;99.90;;;;;;4120669;28;20169;-75
2021/07/01 09:24:50;;;;;;;9.18;5.05;;;16.10;99.90;;;;;;4120205;28;20390;-74
2021/07/01 09:26:55;;;;;;;10.45;6.70;;;16.10;99.90;;;;;;4114785;28;20038;-75
2021/07/01 09:28:57;;;;;;;15.90;6.60;;;16.10;99.90;;;;;;4116122;28;20042;-75
2021/07/01 09:30:58;;;;;;;12.73;6.37;;;16.10;99.90;;;;;;4121111;28;20038;-74
2021/07/01 09:33:04;;;;;;;11.57;6.20;;;16.10;99.90;;;;;;4120369;28;20761;-74
2021/07/01 09:35:06;;;;;;;9.90;5.97;;;16.10;99.90;;;;;;4097871;28;20114;-74
2021/07/01 09:37:07;;;;;;;13.35;5.82;;;16.00;99.90;;;;;;4125075;28;20183;-75
2021/07/01 09:39:08;;;;;;;13.43;7.32;;;16.10;99.90;;;;;;4151112;28;20608;-74
2021/07/01 09:41:11;;;;;;;12.20;5.97;;;16.10;99.90;;;;;;4137339;28;20350;-74
2021/07/01 09:43:12;;;;;;;11.57;5.95;;;16.00;99.90;;;;;;4136102;28;20180;-74
2021/07/01 09:45:14;;;;;;;13.00;6.82;;;16.10;99.90;;;;;;4118361;28;20054;-75
2021/07/01 09:47:17;;;;;;;14.00;6.45;;;16.10;99.90;;;;;;4135523;28;20114;-74
2021/07/01 09:49:20;;;;;;;12.32;6.80;;;16.10;99.90;;;;;;4123816;28;20030;-74
2021/07/01 09:51:21;;;;;;;10.98;5.53;;;16.10;99.90;;;;;;4118441;28;20038;-75
2021/07/01 09:53:29;;;;;;;14.60;7.35;;;16.10;99.90;;;;;;4118086;28;20031;-74
2021/07/01 09:55:31;;;;;;;12.80;6.40;;;16.00;99.90;;;;;;4135022;28;20486;-74
2021/07/01 09:57:38;;;;;;;11.27;6.38;;;16.00;99.90;;;;;;4118973;28;20046;-75
2021/07/01 10:00:05;;;;;;;10.73;6.63;;;15.90;99.90;;;;;;4118250;28;20540;-75
2021/07/01 10:02:32;;;;;;;13.18;6.65;;;16.00;99.90;;;;;;4128152;28;20050;-73
2021/07/01 10:04:35;;;;;;;13.57;7.95;;;16.00;99.90;;;;;;4131813;28;20113;-75
2021/07/01 10:06:37;;;;;;;11.15;6.65;;;16.00;99.90;;;;;;4136945;28;20054;-74
2021/07/01 10:08:38;;;;;;;14.02;7.20;;;16.00;99.90;;;;;;4135400;28;20034;-74
2021/07/01 10:10:44;;;;;;;12.05;5.85;;;16.00;99.90;;;;;;4135019;28;20049;-75
2021/07/01 10:12:51;;;;;;;10.20;5.85;;;16.00;99.90;;;;;;4136663;28;20096;-75
2021/07/01 10:14:55;;;;;;;13.30;6.72;;;16.10;99.90;;;;;;4135568;28;20034;-74
2021/07/01 10:17:06;;;;;;;9.18;5.68;;;16.10;99.90;;;;;;4133268;28;20041;-74
2021/07/01 10:19:08;;;;;;;13.55;6.80;;;16.10;99.90;;;;;;4110221;28;20544;-74
2021/07/01 10:21:16;;;;;;;10.60;5.93;;;16.10;99.90;;;;;;4150840;28;20727;-74
2021/07/01 10:23:31;;;;;;;11.85;6.40;;;16.10;99.90;;;;;;4138358;28;20044;-74
2021/07/01 10:25:33;;;;;;;11.98;6.25;;;16.00;99.90;;;;;;4137898;28;20034;-74
2021/07/01 10:27:40;;;;;;;14.43;6.82;;;16.00;99.90;;;;;;4137941;28;20851;-73
2021/07/01 10:29:41;;;;;;;8.77;6.25;;;16.10;99.90;;;;;;4137990;28;20138;-74
2021/07/01 10:31:47;;;;;;;15.32;6.57;;;16.00;99.90;;;;;;4138346;28;20078;-74